sensor_id;sensor_type;location;lat;lon;timestamp;temperature;humidity
73780;SHT30;62093;37.614;15.072;2023-07-29T00:02:14;26.95;54.95
73780;SHT30;62093;37.614;15.072;2023-07-29T00:04:47;26.92;55.02
73780;SHT30;62093;37.614;15.072;2023-07-29T00:07:20;26.96;54.98
73780;SHT30;62093;37.614;15.072;2023-07-29T00:09:50;26.98;54.89
73780;SHT30;62093;37.614;15.072;2023-07-29T00:12:20;27.00;54.86
73780;SHT30;62093;37.614;15.072;2023-07-29T00:14:51;26.89;55.10
73780;SHT30;62093;37.614;15.072;2023-07-29T00:17:17;26.90;54.99
73780;SHT30;62093;37.614;15.072;2023-07-29T00:19:43;26.92;55.01
73780;SHT30;62093;37.614;15.072;2023-07-29T00:22:13;26.90;54.92
73780;SHT30;62093;37.614;15.072;2023-07-29T00:24:42;26.85;55.06
73780;SHT30;62093;37.614;15.072;2023-07-29T00:27:11;26.88;54.94
73780;SHT30;62093;37.614;15.072;2023-07-29T00:29:37;26.86;54.80
73780;SHT30;62093;37.614;15.072;2023-07-29T00:32:04;26.89;54.86
73780;SHT30;62093;37.614;15.072;2023-07-29T00:34:29;26.95;54.77
73780;SHT30;62093;37.614;15.072;2023-07-29T00:37:00;26.83;54.89
73780;SHT30;62093;37.614;15.072;2023-07-29T00:39:28;26.90;54.66
73780;SHT30;62093;37.614;15.072;2023-07-29T00:41:54;26.88;54.78
73780;SHT30;62093;37.614;15.072;2023-07-29T00:44:21;26.86;54.67
73780;SHT30;62093;37.614;15.072;2023-07-29T00:46:55;26.86;54.73
73780;SHT30;62093;37.614;15.072;2023-07-29T00:49:21;26.83;54.77
73780;SHT30;62093;37.614;15.072;2023-07-29T00:51:51;26.82;54.58
73780;SHT30;62093;37.614;15.072;2023-07-29T00:54:24;26.80;54.72
73780;SHT30;62093;37.614;15.072;2023-07-29T00:56:53;26.78;54.69
73780;SHT30;62093;37.614;15.072;2023-07-29T00:59:19;26.85;54.62
73780;SHT30;62093;37.614;15.072;2023-07-29T01:01:47;26.72;54.63
73780;SHT30;62093;37.614;15.072;2023-07-29T01:04:13;26.78;54.58
73780;SHT30;62093;37.614;15.072;2023-07-29T01:06:58;26.76;54.57
73780;SHT30;62093;37.614;15.072;2023-07-29T01:09:51;26.73;54.75
73780;SHT30;62093;37.614;15.072;2023-07-29T01:18:04;26.72;54.60
73780;SHT30;62093;37.614;15.072;2023-07-29T01:20:54;26.72;54.57
73780;SHT30;62093;37.614;15.072;2023-07-29T01:23:42;26.79;54.60
73780;SHT30;62093;37.614;15.072;2023-07-29T01:26:11;26.75;54.40
73780;SHT30;62093;37.614;15.072;2023-07-29T01:28:41;26.73;54.44
73780;SHT30;62093;37.614;15.072;2023-07-29T01:31:36;26.73;54.36
73780;SHT30;62093;37.614;15.072;2023-07-29T01:34:44;26.71;54.52
73780;SHT30;62093;37.614;15.072;2023-07-29T01:37:19;26.67;54.47
73780;SHT30;62093;37.614;15.072;2023-07-29T01:39:49;26.68;54.53
73780;SHT30;62093;37.614;15.072;2023-07-29T01:42:18;26.67;54.17
73780;SHT30;62093;37.614;15.072;2023-07-29T01:44:53;26.67;54.42
73780;SHT30;62093;37.614;15.072;2023-07-29T01:47:29;26.65;54.33
73780;SHT30;62093;37.614;15.072;2023-07-29T01:49:56;26.59;54.35
73780;SHT30;62093;37.614;15.072;2023-07-29T01:52:27;26.60;54.43
73780;SHT30;62093;37.614;15.072;2023-07-29T01:54:53;26.63;54.19
73780;SHT30;62093;37.614;15.072;2023-07-29T01:57:21;26.59;54.17
73780;SHT30;62093;37.614;15.072;2023-07-29T01:59:47;26.59;53.87
73780;SHT30;62093;37.614;15.072;2023-07-29T02:02:16;26.59;53.95
73780;SHT30;62093;37.614;15.072;2023-07-29T02:04:53;26.55;54.10
73780;SHT30;62093;37.614;15.072;2023-07-29T02:07:28;26.58;54.11
73780;SHT30;62093;37.614;15.072;2023-07-29T02:10:04;26.58;53.93
73780;SHT30;62093;37.614;15.072;2023-07-29T02:12:33;26.55;53.98
73780;SHT30;62093;37.614;15.072;2023-07-29T02:15:05;26.53;53.83
73780;SHT30;62093;37.614;15.072;2023-07-29T02:17:34;26.53;53.79
73780;SHT30;62093;37.614;15.072;2023-07-29T02:20:06;26.52;53.87
73780;SHT30;62093;37.614;15.072;2023-07-29T02:22:39;26.51;53.66
73780;SHT30;62093;37.614;15.072;2023-07-29T02:25:05;26.49;54.05
73780;SHT30;62093;37.614;15.072;2023-07-29T02:27:36;26.47;53.79
73780;SHT30;62093;37.614;15.072;2023-07-29T02:30:06;26.47;53.76
73780;SHT30;62093;37.614;15.072;2023-07-29T02:32:32;26.41;53.76
73780;SHT30;62093;37.614;15.072;2023-07-29T02:34:58;26.41;54.01
73780;SHT30;62093;37.614;15.072;2023-07-29T02:37:32;26.47;53.79
73780;SHT30;62093;37.614;15.072;2023-07-29T02:40:03;26.41;53.87
73780;SHT30;62093;37.614;15.072;2023-07-29T02:42:31;26.42;53.82
73780;SHT30;62093;37.614;15.072;2023-07-29T02:45:03;26.42;53.85
73780;SHT30;62093;37.614;15.072;2023-07-29T02:47:29;26.39;53.49
73780;SHT30;62093;37.614;15.072;2023-07-29T02:50:01;26.37;53.59
73780;SHT30;62093;37.614;15.072;2023-07-29T02:52:30;26.39;53.71
73780;SHT30;62093;37.614;15.072;2023-07-29T02:54:58;26.34;53.66
73780;SHT30;62093;37.614;15.072;2023-07-29T02:57:24;26.37;53.77
73780;SHT30;62093;37.614;15.072;2023-07-29T02:59:49;26.38;53.50
73780;SHT30;62093;37.614;15.072;2023-07-29T03:02:18;26.35;53.68
73780;SHT30;62093;37.614;15.072;2023-07-29T03:04:49;26.39;53.35
73780;SHT30;62093;37.614;15.072;2023-07-29T03:07:15;26.34;53.57
73780;SHT30;62093;37.614;15.072;2023-07-29T03:09:41;26.37;53.47
73780;SHT30;62093;37.614;15.072;2023-07-29T03:12:13;26.31;53.29
73780;SHT30;62093;37.614;15.072;2023-07-29T03:14:39;26.32;53.41
73780;SHT30;62093;37.614;15.072;2023-07-29T03:17:05;26.31;53.50
73780;SHT30;62093;37.614;15.072;2023-07-29T03:19:31;26.27;53.61
73780;SHT30;62093;37.614;15.072;2023-07-29T03:21:56;26.29;53.88
73780;SHT30;62093;37.614;15.072;2023-07-29T03:24:26;26.25;53.41
73780;SHT30;62093;37.614;15.072;2023-07-29T03:26:54;26.28;53.57
73780;SHT30;62093;37.614;15.072;2023-07-29T03:29:22;26.25;53.38
73780;SHT30;62093;37.614;15.072;2023-07-29T03:31:48;26.28;53.26
73780;SHT30;62093;37.614;15.072;2023-07-29T03:34:19;26.25;53.67
73780;SHT30;62093;37.614;15.072;2023-07-29T03:36:48;26.22;53.54
73780;SHT30;62093;37.614;15.072;2023-07-29T03:39:19;26.24;53.62
73780;SHT30;62093;37.614;15.072;2023-07-29T03:41:55;26.21;53.77
73780;SHT30;62093;37.614;15.072;2023-07-29T03:44:23;26.21;53.65
73780;SHT30;62093;37.614;15.072;2023-07-29T03:46:49;26.22;53.72
73780;SHT30;62093;37.614;15.072;2023-07-29T03:49:16;26.25;53.90
73780;SHT30;62093;37.614;15.072;2023-07-29T03:51:42;26.21;53.81
73780;SHT30;62093;37.614;15.072;2023-07-29T03:54:09;26.17;53.85
73780;SHT30;62093;37.614;15.072;2023-07-29T03:56:41;26.21;53.76
73780;SHT30;62093;37.614;15.072;2023-07-29T03:59:12;26.17;53.78
73780;SHT30;62093;37.614;15.072;2023-07-29T04:01:38;26.13;53.73
73780;SHT30;62093;37.614;15.072;2023-07-29T04:04:08;26.17;53.84
73780;SHT30;62093;37.614;15.072;2023-07-29T04:06:36;26.11;53.87
73780;SHT30;62093;37.614;15.072;2023-07-29T04:09:04;26.18;53.96
73780;SHT30;62093;37.614;15.072;2023-07-29T04:11:36;26.16;53.88
73780;SHT30;62093;37.614;15.072;2023-07-29T04:14:03;26.13;53.93
73780;SHT30;62093;37.614;15.072;2023-07-29T04:16:29;26.16;54.23
73780;SHT30;62093;37.614;15.072;2023-07-29T04:18:55;26.14;53.99
73780;SHT30;62093;37.614;15.072;2023-07-29T04:21:25;26.10;53.85
73780;SHT30;62093;37.614;15.072;2023-07-29T04:23:58;26.13;53.99
73780;SHT30;62093;37.614;15.072;2023-07-29T04:26:32;26.08;53.89
73780;SHT30;62093;37.614;15.072;2023-07-29T04:29:00;26.10;54.15
73780;SHT30;62093;37.614;15.072;2023-07-29T04:31:31;26.10;54.11
73780;SHT30;62093;37.614;15.072;2023-07-29T04:33:57;26.13;54.21
73780;SHT30;62093;37.614;15.072;2023-07-29T04:36:28;26.11;54.25
73780;SHT30;62093;37.614;15.072;2023-07-29T04:38:54;26.11;54.42
73780;SHT30;62093;37.614;15.072;2023-07-29T04:41:19;26.08;54.46
73780;SHT30;62093;37.614;15.072;2023-07-29T04:43:45;26.07;54.54
73780;SHT30;62093;37.614;15.072;2023-07-29T04:46:31;26.13;54.56
73780;SHT30;62093;37.614;15.072;2023-07-29T04:49:05;26.07;54.52
73780;SHT30;62093;37.614;15.072;2023-07-29T04:51:36;26.07;54.56
73780;SHT30;62093;37.614;15.072;2023-07-29T04:54:02;26.04;54.51
73780;SHT30;62093;37.614;15.072;2023-07-29T04:56:31;26.05;54.61
73780;SHT30;62093;37.614;15.072;2023-07-29T04:58:57;26.07;54.70
73780;SHT30;62093;37.614;15.072;2023-07-29T05:01:25;26.08;54.85
73780;SHT30;62093;37.614;15.072;2023-07-29T05:03:59;26.05;54.98
73780;SHT30;62093;37.614;15.072;2023-07-29T05:06:25;26.08;54.97
73780;SHT30;62093;37.614;15.072;2023-07-29T05:08:51;26.10;55.03
73780;SHT30;62093;37.614;15.072;2023-07-29T05:11:17;26.08;55.26
73780;SHT30;62093;37.614;15.072;2023-07-29T05:13:47;26.11;55.11
73780;SHT30;62093;37.614;15.072;2023-07-29T05:16:16;26.14;55.14
73780;SHT30;62093;37.614;15.072;2023-07-29T05:18:50;26.13;55.09
73780;SHT30;62093;37.614;15.072;2023-07-29T05:21:22;26.14;55.18
73780;SHT30;62093;37.614;15.072;2023-07-29T05:24:00;26.16;55.34
73780;SHT30;62093;37.614;15.072;2023-07-29T05:26:34;26.16;55.26
73780;SHT30;62093;37.614;15.072;2023-07-29T05:29:21;26.18;55.39
73780;SHT30;62093;37.614;15.072;2023-07-29T05:32:02;26.16;55.36
73780;SHT30;62093;37.614;15.072;2023-07-29T05:34:33;26.17;55.29
73780;SHT30;62093;37.614;15.072;2023-07-29T05:37:02;26.20;55.32
73780;SHT30;62093;37.614;15.072;2023-07-29T05:39:33;26.21;55.45
73780;SHT30;62093;37.614;15.072;2023-07-29T05:42:04;26.21;55.34
73780;SHT30;62093;37.614;15.072;2023-07-29T05:44:38;26.20;55.24
73780;SHT30;62093;37.614;15.072;2023-07-29T05:47:11;26.21;55.03
73780;SHT30;62093;37.614;15.072;2023-07-29T05:49:52;26.22;55.03
73780;SHT30;62093;37.614;15.072;2023-07-29T05:52:27;26.24;55.06
73780;SHT30;62093;37.614;15.072;2023-07-29T05:55:04;26.25;54.94
73780;SHT30;62093;37.614;15.072;2023-07-29T05:57:36;26.25;54.98
73780;SHT30;62093;37.614;15.072;2023-07-29T06:00:08;26.25;54.94
73780;SHT30;62093;37.614;15.072;2023-07-29T06:02:41;26.25;55.07
73780;SHT30;62093;37.614;15.072;2023-07-29T06:05:22;26.29;54.97
73780;SHT30;62093;37.614;15.072;2023-07-29T06:07:56;26.29;54.85
73780;SHT30;62093;37.614;15.072;2023-07-29T06:10:24;26.29;54.22
73780;SHT30;62093;37.614;15.072;2023-07-29T06:12:50;26.28;54.66
73780;SHT30;62093;37.614;15.072;2023-07-29T06:15:17;26.29;54.84
73780;SHT30;62093;37.614;15.072;2023-07-29T06:17:50;26.32;54.89
73780;SHT30;62093;37.614;15.072;2023-07-29T06:20:16;26.35;54.77
73780;SHT30;62093;37.614;15.072;2023-07-29T06:22:45;26.35;54.89
73780;SHT30;62093;37.614;15.072;2023-07-29T06:25:18;26.37;54.98
73780;SHT30;62093;37.614;15.072;2023-07-29T06:27:52;26.37;54.86
73780;SHT30;62093;37.614;15.072;2023-07-29T06:30:24;26.38;54.87
73780;SHT30;62093;37.614;15.072;2023-07-29T06:33:00;26.38;54.88
73780;SHT30;62093;37.614;15.072;2023-07-29T06:35:36;26.41;55.44
73780;SHT30;62093;37.614;15.072;2023-07-29T06:38:13;26.39;55.10
73780;SHT30;62093;37.614;15.072;2023-07-29T06:40:39;26.39;55.03
73780;SHT30;62093;37.614;15.072;2023-07-29T06:43:07;26.39;55.02
73780;SHT30;62093;37.614;15.072;2023-07-29T06:45:33;26.44;55.05
73780;SHT30;62093;37.614;15.072;2023-07-29T06:48:01;26.41;55.06
73780;SHT30;62093;37.614;15.072;2023-07-29T06:50:30;26.44;55.20
73780;SHT30;62093;37.614;15.072;2023-07-29T06:52:57;26.45;55.22
73780;SHT30;62093;37.614;15.072;2023-07-29T06:55:29;26.44;55.14
73780;SHT30;62093;37.614;15.072;2023-07-29T06:57:57;26.47;55.24
73780;SHT30;62093;37.614;15.072;2023-07-29T07:00:30;26.45;55.19
73780;SHT30;62093;37.614;15.072;2023-07-29T07:02:55;26.47;55.13
73780;SHT30;62093;37.614;15.072;2023-07-29T07:05:21;26.45;55.09
73780;SHT30;62093;37.614;15.072;2023-07-29T07:07:53;26.47;55.44
73780;SHT30;62093;37.614;15.072;2023-07-29T07:10:22;26.49;55.28
73780;SHT30;62093;37.614;15.072;2023-07-29T07:12:50;26.49;55.40
73780;SHT30;62093;37.614;15.072;2023-07-29T07:15:19;26.48;55.24
73780;SHT30;62093;37.614;15.072;2023-07-29T07:17:45;26.52;55.20
73780;SHT30;62093;37.614;15.072;2023-07-29T07:20:20;26.51;55.16
73780;SHT30;62093;37.614;15.072;2023-07-29T07:22:46;26.49;55.26
73780;SHT30;62093;37.614;15.072;2023-07-29T07:25:17;26.51;55.23
73780;SHT30;62093;37.614;15.072;2023-07-29T07:27:50;26.52;55.13
73780;SHT30;62093;37.614;15.072;2023-07-29T07:30:21;26.51;55.24
73780;SHT30;62093;37.614;15.072;2023-07-29T07:32:54;26.53;55.18
73780;SHT30;62093;37.614;15.072;2023-07-29T07:35:30;26.53;55.48
73780;SHT30;62093;37.614;15.072;2023-07-29T07:37:58;26.55;55.23
73780;SHT30;62093;37.614;15.072;2023-07-29T07:40:31;26.55;55.27
73780;SHT30;62093;37.614;15.072;2023-07-29T07:43:02;26.56;55.28
73780;SHT30;62093;37.614;15.072;2023-07-29T07:45:38;26.55;55.24
73780;SHT30;62093;37.614;15.072;2023-07-29T07:48:06;26.59;55.45
73780;SHT30;62093;37.614;15.072;2023-07-29T07:50:44;26.58;55.34
73780;SHT30;62093;37.614;15.072;2023-07-29T07:53:31;26.59;55.38
73780;SHT30;62093;37.614;15.072;2023-07-29T07:56:02;26.59;55.43
73780;SHT30;62093;37.614;15.072;2023-07-29T07:58:31;26.60;55.61
73780;SHT30;62093;37.614;15.072;2023-07-29T08:01:08;26.60;55.49
73780;SHT30;62093;37.614;15.072;2023-07-29T08:03:42;26.60;55.51
73780;SHT30;62093;37.614;15.072;2023-07-29T08:06:11;26.62;55.58
73780;SHT30;62093;37.614;15.072;2023-07-29T08:08:36;26.63;55.57
73780;SHT30;62093;37.614;15.072;2023-07-29T08:11:05;26.63;55.61
73780;SHT30;62093;37.614;15.072;2023-07-29T08:13:31;26.63;55.61
73780;SHT30;62093;37.614;15.072;2023-07-29T08:16:02;26.62;55.53
73780;SHT30;62093;37.614;15.072;2023-07-29T08:18:34;26.65;55.52
73780;SHT30;62093;37.614;15.072;2023-07-29T08:21:02;26.65;55.56
73780;SHT30;62093;37.614;15.072;2023-07-29T08:26:08;26.69;55.70
73780;SHT30;62093;37.614;15.072;2023-07-29T08:28:36;26.69;55.68
73780;SHT30;62093;37.614;15.072;2023-07-29T08:31:06;26.69;55.67
73780;SHT30;62093;37.614;15.072;2023-07-29T08:33:35;26.72;55.63
73780;SHT30;62093;37.614;15.072;2023-07-29T08:36:03;26.72;55.67
73780;SHT30;62093;37.614;15.072;2023-07-29T08:38:32;26.69;55.64
73780;SHT30;62093;37.614;15.072;2023-07-29T08:43:56;26.73;55.65
73780;SHT30;62093;37.614;15.072;2023-07-29T08:46:35;26.73;55.61
73780;SHT30;62093;37.614;15.072;2023-07-29T08:49:03;26.73;55.58
73780;SHT30;62093;37.614;15.072;2023-07-29T08:51:31;26.75;55.63
73780;SHT30;62093;37.614;15.072;2023-07-29T08:54:01;26.76;55.60
73780;SHT30;62093;37.614;15.072;2023-07-29T08:56:28;26.78;55.52
73780;SHT30;62093;37.614;15.072;2023-07-29T08:58:58;26.78;55.60
73780;SHT30;62093;37.614;15.072;2023-07-29T09:01:35;26.79;55.52
73780;SHT30;62093;37.614;15.072;2023-07-29T09:04:06;26.79;55.60
73780;SHT30;62093;37.614;15.072;2023-07-29T09:06:39;26.80;55.68
73780;SHT30;62093;37.614;15.072;2023-07-29T09:09:08;26.83;55.64
73780;SHT30;62093;37.614;15.072;2023-07-29T09:11:38;26.83;55.70
73780;SHT30;62093;37.614;15.072;2023-07-29T09:14:12;26.82;55.66
73780;SHT30;62093;37.614;15.072;2023-07-29T09:16:48;26.83;55.69
73780;SHT30;62093;37.614;15.072;2023-07-29T09:19:24;26.83;55.70
73780;SHT30;62093;37.614;15.072;2023-07-29T09:21:59;26.88;55.60
73780;SHT30;62093;37.614;15.072;2023-07-29T09:24:26;26.88;55.63
73780;SHT30;62093;37.614;15.072;2023-07-29T09:27:05;26.86;55.80
73780;SHT30;62093;37.614;15.072;2023-07-29T09:29:31;26.90;55.85
73780;SHT30;62093;37.614;15.072;2023-07-29T09:32:37;26.90;55.85
73780;SHT30;62093;37.614;15.072;2023-07-29T09:35:16;26.90;55.81
73780;SHT30;62093;37.614;15.072;2023-07-29T09:37:44;26.92;55.71
73780;SHT30;62093;37.614;15.072;2023-07-29T09:40:14;26.92;55.90
73780;SHT30;62093;37.614;15.072;2023-07-29T09:42:58;26.95;55.79
73780;SHT30;62093;37.614;15.072;2023-07-29T09:45:27;26.92;55.89
73780;SHT30;62093;37.614;15.072;2023-07-29T09:48:00;26.95;55.87
73780;SHT30;62093;37.614;15.072;2023-07-29T09:50:29;26.99;55.96
73780;SHT30;62093;37.614;15.072;2023-07-29T09:52:56;26.96;55.99
73780;SHT30;62093;37.614;15.072;2023-07-29T09:55:38;26.96;55.98
73780;SHT30;62093;37.614;15.072;2023-07-29T09:58:27;27.00;55.88
73780;SHT30;62093;37.614;15.072;2023-07-29T10:00:56;26.96;56.04
73780;SHT30;62093;37.614;15.072;2023-07-29T10:03:25;27.00;55.93
73780;SHT30;62093;37.614;15.072;2023-07-29T10:05:54;27.00;55.90
73780;SHT30;62093;37.614;15.072;2023-07-29T10:08:24;27.02;56.11
73780;SHT30;62093;37.614;15.072;2023-07-29T10:11:08;27.00;56.07
73780;SHT30;62093;37.614;15.072;2023-07-29T10:13:41;27.02;56.05
73780;SHT30;62093;37.614;15.072;2023-07-29T10:16:10;27.04;55.89
73780;SHT30;62093;37.614;15.072;2023-07-29T10:18:36;27.06;55.81
73780;SHT30;62093;37.614;15.072;2023-07-29T10:21:10;27.06;55.81
73780;SHT30;62093;37.614;15.072;2023-07-29T10:23:43;27.06;56.11
73780;SHT30;62093;37.614;15.072;2023-07-29T10:26:37;27.06;56.17
73780;SHT30;62093;37.614;15.072;2023-07-29T10:29:22;27.10;56.09
73780;SHT30;62093;37.614;15.072;2023-07-29T10:32:10;27.09;56.17
73780;SHT30;62093;37.614;15.072;2023-07-29T10:34:42;27.09;56.24
73780;SHT30;62093;37.614;15.072;2023-07-29T10:37:13;27.09;56.24
73780;SHT30;62093;37.614;15.072;2023-07-29T10:40:05;27.10;56.17
73780;SHT30;62093;37.614;15.072;2023-07-29T10:43:11;27.16;56.74
73780;SHT30;62093;37.614;15.072;2023-07-29T10:45:50;27.20;56.46
73780;SHT30;62093;37.614;15.072;2023-07-29T10:51:31;27.23;55.47
73780;SHT30;62093;37.614;15.072;2023-07-29T10:56:33;27.30;55.17
73780;SHT30;62093;37.614;15.072;2023-07-29T11:01:42;27.34;54.61
73780;SHT30;62093;37.614;15.072;2023-07-29T11:04:22;27.39;54.67
73780;SHT30;62093;37.614;15.072;2023-07-29T11:12:54;27.46;54.30
73780;SHT30;62093;37.614;15.072;2023-07-29T11:15:33;27.46;53.97
73780;SHT30;62093;37.614;15.072;2023-07-29T11:18:06;27.47;53.83
73780;SHT30;62093;37.614;15.072;2023-07-29T11:20:37;27.53;53.69
73780;SHT30;62093;37.614;15.072;2023-07-29T11:23:08;27.51;53.89
73780;SHT30;62093;37.614;15.072;2023-07-29T11:25:39;27.54;53.77
73780;SHT30;62093;37.614;15.072;2023-07-29T11:28:05;27.55;53.58
73780;SHT30;62093;37.614;15.072;2023-07-29T11:30:31;27.57;53.52
73780;SHT30;62093;37.614;15.072;2023-07-29T11:33:03;27.61;53.37
73780;SHT30;62093;37.614;15.072;2023-07-29T11:35:32;27.58;53.40
73780;SHT30;62093;37.614;15.072;2023-07-29T11:38:03;27.65;53.35
73780;SHT30;62093;37.614;15.072;2023-07-29T11:40:30;27.64;53.33
73780;SHT30;62093;37.614;15.072;2023-07-29T11:42:56;27.64;53.12
73780;SHT30;62093;37.614;15.072;2023-07-29T11:45:30;27.68;53.09
73780;SHT30;62093;37.614;15.072;2023-07-29T11:47:57;27.70;52.98
73780;SHT30;62093;37.614;15.072;2023-07-29T11:50:29;27.68;52.96
73780;SHT30;62093;37.614;15.072;2023-07-29T11:52:55;27.70;52.84
73780;SHT30;62093;37.614;15.072;2023-07-29T11:55:26;27.70;52.98
73780;SHT30;62093;37.614;15.072;2023-07-29T11:58:07;27.70;52.77
73780;SHT30;62093;37.614;15.072;2023-07-29T12:00:33;27.72;52.66
73780;SHT30;62093;37.614;15.072;2023-07-29T12:03:01;27.74;52.79
73780;SHT30;62093;37.614;15.072;2023-07-29T12:05:27;27.76;52.73
73780;SHT30;62093;37.614;15.072;2023-07-29T12:07:56;27.80;52.46
73780;SHT30;62093;37.614;15.072;2023-07-29T12:10:27;27.80;52.38
73780;SHT30;62093;37.614;15.072;2023-07-29T12:12:58;27.77;52.42
73780;SHT30;62093;37.614;15.072;2023-07-29T12:15:28;27.78;52.44
73780;SHT30;62093;37.614;15.072;2023-07-29T12:17:57;27.84;52.27
73780;SHT30;62093;37.614;15.072;2023-07-29T12:20:23;27.85;52.06
73780;SHT30;62093;37.614;15.072;2023-07-29T12:22:58;27.87;52.14
73780;SHT30;62093;37.614;15.072;2023-07-29T12:25:27;27.85;52.13
73780;SHT30;62093;37.614;15.072;2023-07-29T12:28:12;27.85;52.09
73780;SHT30;62093;37.614;15.072;2023-07-29T12:30:43;27.89;52.00
73780;SHT30;62093;37.614;15.072;2023-07-29T12:33:09;27.89;51.86
73780;SHT30;62093;37.614;15.072;2023-07-29T12:35:36;27.91;51.74
73780;SHT30;62093;37.614;15.072;2023-07-29T12:38:06;27.94;51.70
73780;SHT30;62093;37.614;15.072;2023-07-29T12:40:37;27.95;51.69
73780;SHT30;62093;37.614;15.072;2023-07-29T12:43:06;27.94;51.70
73780;SHT30;62093;37.614;15.072;2023-07-29T12:45:37;27.98;51.58
73780;SHT30;62093;37.614;15.072;2023-07-29T12:48:10;27.98;51.69
73780;SHT30;62093;37.614;15.072;2023-07-29T12:50:38;27.97;51.42
73780;SHT30;62093;37.614;15.072;2023-07-29T12:53:07;27.98;51.47
73780;SHT30;62093;37.614;15.072;2023-07-29T12:55:37;27.99;51.46
73780;SHT30;62093;37.614;15.072;2023-07-29T12:58:06;28.02;51.30
73780;SHT30;62093;37.614;15.072;2023-07-29T13:00:32;28.02;51.32
73780;SHT30;62093;37.614;15.072;2023-07-29T13:03:03;28.04;51.26
73780;SHT30;62093;37.614;15.072;2023-07-29T13:05:34;28.05;51.23
73780;SHT30;62093;37.614;15.072;2023-07-29T13:08:04;28.09;51.01
73780;SHT30;62093;37.614;15.072;2023-07-29T13:10:32;28.08;51.06
73780;SHT30;62093;37.614;15.072;2023-07-29T13:13:00;28.06;50.90
73780;SHT30;62093;37.614;15.072;2023-07-29T13:15:30;28.06;51.02
73780;SHT30;62093;37.614;15.072;2023-07-29T13:17:59;28.09;50.92
73780;SHT30;62093;37.614;15.072;2023-07-29T13:20:30;28.09;50.84
73780;SHT30;62093;37.614;15.072;2023-07-29T13:22:57;28.12;50.84
73780;SHT30;62093;37.614;15.072;2023-07-29T13:25:28;28.12;50.86
73780;SHT30;62093;37.614;15.072;2023-07-29T13:27:56;28.15;50.68
73780;SHT30;62093;37.614;15.072;2023-07-29T13:30:27;28.13;50.65
73780;SHT30;62093;37.614;15.072;2023-07-29T13:32:58;28.16;50.68
73780;SHT30;62093;37.614;15.072;2023-07-29T13:35:24;28.18;50.59
73780;SHT30;62093;37.614;15.072;2023-07-29T13:37:53;28.18;50.73
73780;SHT30;62093;37.614;15.072;2023-07-29T13:40:22;28.20;50.56
73780;SHT30;62093;37.614;15.072;2023-07-29T13:42:50;28.19;50.49
73780;SHT30;62093;37.614;15.072;2023-07-29T13:45:17;28.22;50.41
73780;SHT30;62093;37.614;15.072;2023-07-29T13:47:45;28.23;50.45
73780;SHT30;62093;37.614;15.072;2023-07-29T13:50:11;28.23;50.37
73780;SHT30;62093;37.614;15.072;2023-07-29T13:52:42;28.25;50.29
73780;SHT30;62093;37.614;15.072;2023-07-29T13:55:08;28.29;50.21
73780;SHT30;62093;37.614;15.072;2023-07-29T13:57:34;28.26;50.34
73780;SHT30;62093;37.614;15.072;2023-07-29T14:00:07;28.29;50.24
73780;SHT30;62093;37.614;15.072;2023-07-29T14:02:45;28.28;50.23
73780;SHT30;62093;37.614;15.072;2023-07-29T14:05:13;28.28;50.31
73780;SHT30;62093;37.614;15.072;2023-07-29T14:07:39;28.31;50.22
73780;SHT30;62093;37.614;15.072;2023-07-29T14:10:05;28.28;50.23
73780;SHT30;62093;37.614;15.072;2023-07-29T14:12:34;28.29;50.18
73780;SHT30;62093;37.614;15.072;2023-07-29T14:15:11;28.31;50.15
73780;SHT30;62093;37.614;15.072;2023-07-29T14:17:36;28.32;50.17
73780;SHT30;62093;37.614;15.072;2023-07-29T14:20:06;28.35;50.01
73780;SHT30;62093;37.614;15.072;2023-07-29T14:22:38;28.31;50.10
73780;SHT30;62093;37.614;15.072;2023-07-29T14:25:11;28.36;50.11
73780;SHT30;62093;37.614;15.072;2023-07-29T14:27:37;28.35;50.05
73780;SHT30;62093;37.614;15.072;2023-07-29T14:30:04;28.33;50.00
73780;SHT30;62093;37.614;15.072;2023-07-29T14:32:33;28.33;50.00
73780;SHT30;62093;37.614;15.072;2023-07-29T14:35:01;28.36;49.88
73780;SHT30;62093;37.614;15.072;2023-07-29T14:37:31;28.39;49.89
73780;SHT30;62093;37.614;15.072;2023-07-29T14:40:01;28.35;49.94
73780;SHT30;62093;37.614;15.072;2023-07-29T14:42:28;28.38;49.86
73780;SHT30;62093;37.614;15.072;2023-07-29T14:44:56;28.38;49.95
73780;SHT30;62093;37.614;15.072;2023-07-29T14:47:22;28.38;49.95
73780;SHT30;62093;37.614;15.072;2023-07-29T14:49:51;28.38;49.87
73780;SHT30;62093;37.614;15.072;2023-07-29T14:52:28;28.40;49.86
73780;SHT30;62093;37.614;15.072;2023-07-29T14:54:59;28.39;49.89
73780;SHT30;62093;37.614;15.072;2023-07-29T14:57:24;28.40;49.94
73780;SHT30;62093;37.614;15.072;2023-07-29T14:59:50;28.40;49.92
73780;SHT30;62093;37.614;15.072;2023-07-29T15:02:24;28.40;49.87
73780;SHT30;62093;37.614;15.072;2023-07-29T15:04:51;28.42;49.83
73780;SHT30;62093;37.614;15.072;2023-07-29T15:07:19;28.43;49.87
73780;SHT30;62093;37.614;15.072;2023-07-29T15:09:48;28.43;49.91
73780;SHT30;62093;37.614;15.072;2023-07-29T15:12:16;28.45;49.87
73780;SHT30;62093;37.614;15.072;2023-07-29T15:14:43;28.45;49.95
73780;SHT30;62093;37.614;15.072;2023-07-29T15:17:15;28.46;49.83
73780;SHT30;62093;37.614;15.072;2023-07-29T15:19:43;28.43;49.82
73780;SHT30;62093;37.614;15.072;2023-07-29T15:22:11;28.46;49.85
73780;SHT30;62093;37.614;15.072;2023-07-29T15:24:37;28.46;49.81
73780;SHT30;62093;37.614;15.072;2023-07-29T15:27:05;28.45;49.86
73780;SHT30;62093;37.614;15.072;2023-07-29T15:29:32;28.52;49.72
73780;SHT30;62093;37.614;15.072;2023-07-29T15:32:11;28.60;49.62
73780;SHT30;62093;37.614;15.072;2023-07-29T15:34:37;28.64;49.49
73780;SHT30;62093;37.614;15.072;2023-07-29T15:37:12;28.73;49.27
73780;SHT30;62093;37.614;15.072;2023-07-29T15:39:44;28.80;49.09
73780;SHT30;62093;37.614;15.072;2023-07-29T15:42:14;28.89;48.85
73780;SHT30;62093;37.614;15.072;2023-07-29T15:44:45;28.91;48.76
73780;SHT30;62093;37.614;15.072;2023-07-29T15:47:20;28.89;48.75
73780;SHT30;62093;37.614;15.072;2023-07-29T15:49:53;28.87;48.87
73780;SHT30;62093;37.614;15.072;2023-07-29T15:52:20;28.83;48.99
73780;SHT30;62093;37.614;15.072;2023-07-29T15:54:49;28.79;48.95
73780;SHT30;62093;37.614;15.072;2023-07-29T15:57:17;28.79;49.01
73780;SHT30;62093;37.614;15.072;2023-07-29T15:59:52;28.73;49.08
73780;SHT30;62093;37.614;15.072;2023-07-29T16:02:18;28.70;49.13
73780;SHT30;62093;37.614;15.072;2023-07-29T16:04:44;28.70;49.18